Delta Junction, AK (99737)

1:34 AM AKDT on September 27, 2016 (GMT -0800)
Allen Army Air Field | | Change Station

Elev 1306 ft 63.99 °N, 145.72 °W | Updated 41 minutes ago

Overcast
Overcast
36 °F
Feels Like 32 °F
N
5
Wind Variable Wind from WSW

Today
High -- | Low -- °F
--% Chance of Precip.
Yesterday
High -- | Low -- °F
Precip. -- in
Pressure 30.05 in
Visibility 10.0 miles
Clouds Overcast 3700 ft
Windchill 32 °F
Dew Point 31 °F
Humidity 82%
Rainfall 0.00 in
Snow Depth Not available.
7:41 AM 7:22 PM
Waning Crescent, 12% visible
METAR PABI 270853Z AUTO 25004KT 10SM OVC037 02/M01 A2999 RMK AO2 SLP174 T00221006 400560006 52014 TSNO
Pressure 30.05 in
Visibility 10.0 miles
Clouds Overcast 3700 ft
Windchill 32 °F
Dew Point 31 °F
Humidity 82%
Rainfall 0.00 in
Snow Depth Not available.
7:41 AM 7:22 PM
Waning Crescent, 12% visible
METAR PABI 270853Z AUTO 25004KT 10SM OVC037 02/M01 A2999 RMK AO2 SLP174 T00221006 400560006 52014 TSNO

10-Day Weather Forecast

Almanac

Astronomy

Sep. 27, 2016 Rise Set
Actual Time
Civil Twilight
Nautical Twilight
Astronomical Twilight
Moon
Length of Visible Light
Length of Day
Tomorrow will be .
, % of the Moon is Illuminated

Today's Extremes

State Highs State Lows

Community

WunderPhotos

Upload Photos

1,942,057 photos uploaded!

WunderBlog® & News

Nearby

Air Quality

  Air Quality AQ Index Pollutant
Not available.

Snow Depth

Station Depth Elevation

Earthquake Activity

City Distance Mag. Time & Date
Minimum magnitude displayed is 2.5.

Coastal Water Temperatures

Place Temperature

Stations

Nearby Weather Stations

Station Location Temp. Windchill Dew Point Humidity Wind Precip. Elev Updated Type
                   

Watches & Warnings

There are currently no watches in effect.